sensor_id;sensor_type;location;lat;lon;timestamp;P1;durP1;ratioP1;P2;durP2;ratioP2
15331;SDS011;7766;51.534;6.722;2023-04-03T00:00:04;11.40;;;6.97;;
15331;SDS011;7766;51.534;6.722;2023-04-03T00:01:06;10.65;;;7.40;;
15331;SDS011;7766;51.534;6.722;2023-04-03T00:02:07;9.83;;;7.37;;
15331;SDS011;7766;51.534;6.722;2023-04-03T00:03:08;10.88;;;7.32;;
15331;SDS011;7766;51.534;6.722;2023-04-03T00:04:10;6.80;;;5.97;;
15331;SDS011;7766;51.534;6.722;2023-04-03T00:05:11;16.83;;;7.30;;
15331;SDS011;7766;51.534;6.722;2023-04-03T00:06:12;11.50;;;6.60;;
15331;SDS011;7766;51.534;6.722;2023-04-03T00:07:13;14.40;;;8.13;;
15331;SDS011;7766;51.534;6.722;2023-04-03T00:08:14;10.10;;;7.40;;
15331;SDS011;7766;51.534;6.722;2023-04-03T00:09:15;11.15;;;7.28;;
15331;SDS011;7766;51.534;6.722;2023-04-03T00:10:16;10.52;;;7.55;;
15331;SDS011;7766;51.534;6.722;2023-04-03T00:11:18;8.40;;;6.15;;
15331;SDS011;7766;51.534;6.722;2023-04-03T00:12:19;10.55;;;6.13;;
15331;SDS011;7766;51.534;6.722;2023-04-03T00:13:20;14.60;;;8.93;;
15331;SDS011;7766;51.534;6.722;2023-04-03T00:14:22;7.75;;;5.97;;
15331;SDS011;7766;51.534;6.722;2023-04-03T00:15:23;7.57;;;5.53;;
15331;SDS011;7766;51.534;6.722;2023-04-03T00:16:25;8.93;;;5.13;;
15331;SDS011;7766;51.534;6.722;2023-04-03T00:17:26;7.45;;;4.90;;
15331;SDS011;7766;51.534;6.722;2023-04-03T00:18:27;5.97;;;4.82;;
15331;SDS011;7766;51.534;6.722;2023-04-03T00:19:28;8.13;;;5.07;;
15331;SDS011;7766;51.534;6.722;2023-04-03T00:20:29;6.53;;;4.90;;
15331;SDS011;7766;51.534;6.722;2023-04-03T00:21:29;5.90;;;4.10;;
15331;SDS011;7766;51.534;6.722;2023-04-03T00:22:31;5.43;;;4.35;;
15331;SDS011;7766;51.534;6.722;2023-04-03T00:23:32;6.00;;;4.57;;
15331;SDS011;7766;51.534;6.722;2023-04-03T00:24:34;6.45;;;4.40;;
15331;SDS011;7766;51.534;6.722;2023-04-03T00:25:35;6.15;;;4.00;;
15331;SDS011;7766;51.534;6.722;2023-04-03T00:26:37;6.97;;;4.15;;
15331;SDS011;7766;51.534;6.722;2023-04-03T00:27:39;6.65;;;4.55;;
15331;SDS011;7766;51.534;6.722;2023-04-03T00:28:40;7.75;;;4.28;;
15331;SDS011;7766;51.534;6.722;2023-04-03T00:29:41;7.00;;;4.90;;
15331;SDS011;7766;51.534;6.722;2023-04-03T00:30:42;9.98;;;4.40;;
15331;SDS011;7766;51.534;6.722;2023-04-03T00:31:44;7.85;;;4.85;;
15331;SDS011;7766;51.534;6.722;2023-04-03T00:32:46;7.53;;;4.90;;
15331;SDS011;7766;51.534;6.722;2023-04-03T00:33:48;6.28;;;4.85;;
15331;SDS011;7766;51.534;6.722;2023-04-03T00:34:49;7.05;;;5.15;;
15331;SDS011;7766;51.534;6.722;2023-04-03T00:35:51;9.40;;;5.60;;
15331;SDS011;7766;51.534;6.722;2023-04-03T00:36:52;10.20;;;5.40;;
15331;SDS011;7766;51.534;6.722;2023-04-03T00:37:53;9.33;;;5.90;;
15331;SDS011;7766;51.534;6.722;2023-04-03T00:38:55;6.80;;;5.55;;
15331;SDS011;7766;51.534;6.722;2023-04-03T00:39:56;8.95;;;5.22;;
15331;SDS011;7766;51.534;6.722;2023-04-03T00:40:57;8.25;;;5.43;;
15331;SDS011;7766;51.534;6.722;2023-04-03T00:41:58;8.23;;;4.75;;
15331;SDS011;7766;51.534;6.722;2023-04-03T00:42:59;8.25;;;4.72;;
15331;SDS011;7766;51.534;6.722;2023-04-03T00:44:00;8.40;;;4.75;;
15331;SDS011;7766;51.534;6.722;2023-04-03T00:46:02;4.93;;;3.67;;
15331;SDS011;7766;51.534;6.722;2023-04-03T00:47:04;6.43;;;3.77;;
15331;SDS011;7766;51.534;6.722;2023-04-03T00:48:10;4.22;;;3.28;;
15331;SDS011;7766;51.534;6.722;2023-04-03T00:49:14;6.55;;;3.47;;
15331;SDS011;7766;51.534;6.722;2023-04-03T00:50:15;4.63;;;3.72;;
15331;SDS011;7766;51.534;6.722;2023-04-03T00:51:21;8.93;;;3.72;;
15331;SDS011;7766;51.534;6.722;2023-04-03T00:52:25;4.53;;;3.08;;
15331;SDS011;7766;51.534;6.722;2023-04-03T00:53:35;6.75;;;3.67;;
15331;SDS011;7766;51.534;6.722;2023-04-03T00:54:46;4.90;;;3.60;;
15331;SDS011;7766;51.534;6.722;2023-04-03T00:55:50;4.57;;;3.42;;
15331;SDS011;7766;51.534;6.722;2023-04-03T00:56:54;4.43;;;3.22;;
15331;SDS011;7766;51.534;6.722;2023-04-03T00:57:57;6.97;;;3.63;;
15331;SDS011;7766;51.534;6.722;2023-04-03T00:59:01;6.15;;;3.60;;
15331;SDS011;7766;51.534;6.722;2023-04-03T01:00:09;3.92;;;2.70;;
15331;SDS011;7766;51.534;6.722;2023-04-03T01:01:12;5.18;;;3.30;;
15331;SDS011;7766;51.534;6.722;2023-04-03T01:02:18;5.43;;;3.45;;
15331;SDS011;7766;51.534;6.722;2023-04-03T01:03:19;7.70;;;3.20;;
15331;SDS011;7766;51.534;6.722;2023-04-03T01:05:31;5.03;;;3.53;;
15331;SDS011;7766;51.534;6.722;2023-04-03T01:06:33;6.32;;;3.55;;
15331;SDS011;7766;51.534;6.722;2023-04-03T01:07:36;8.63;;;4.00;;
15331;SDS011;7766;51.534;6.722;2023-04-03T01:08:38;6.45;;;3.80;;
15331;SDS011;7766;51.534;6.722;2023-04-03T01:09:39;5.85;;;3.15;;
15331;SDS011;7766;51.534;6.722;2023-04-03T01:10:41;4.38;;;3.28;;
15331;SDS011;7766;51.534;6.722;2023-04-03T01:11:42;7.40;;;2.92;;
15331;SDS011;7766;51.534;6.722;2023-04-03T01:12:44;3.37;;;2.87;;
15331;SDS011;7766;51.534;6.722;2023-04-03T01:13:45;4.50;;;3.60;;
15331;SDS011;7766;51.534;6.722;2023-04-03T01:14:49;5.85;;;2.80;;
15331;SDS011;7766;51.534;6.722;2023-04-03T01:15:52;6.22;;;3.33;;
15331;SDS011;7766;51.534;6.722;2023-04-03T01:16:53;3.97;;;3.05;;
15331;SDS011;7766;51.534;6.722;2023-04-03T01:17:55;5.75;;;3.08;;
15331;SDS011;7766;51.534;6.722;2023-04-03T01:18:58;5.15;;;3.25;;
15331;SDS011;7766;51.534;6.722;2023-04-03T01:21:35;6.00;;;3.40;;
15331;SDS011;7766;51.534;6.722;2023-04-03T01:23:30;3.60;;;2.67;;
15331;SDS011;7766;51.534;6.722;2023-04-03T01:24:29;5.50;;;2.88;;
15331;SDS011;7766;51.534;6.722;2023-04-03T01:25:33;5.80;;;2.92;;
15331;SDS011;7766;51.534;6.722;2023-04-03T01:26:36;4.75;;;3.00;;
15331;SDS011;7766;51.534;6.722;2023-04-03T01:27:37;4.07;;;3.08;;
15331;SDS011;7766;51.534;6.722;2023-04-03T01:28:38;5.93;;;3.50;;
15331;SDS011;7766;51.534;6.722;2023-04-03T01:29:39;3.30;;;3.00;;
15331;SDS011;7766;51.534;6.722;2023-04-03T01:30:50;7.15;;;3.00;;
15331;SDS011;7766;51.534;6.722;2023-04-03T01:31:53;6.03;;;3.05;;
15331;SDS011;7766;51.534;6.722;2023-04-03T01:32:58;5.72;;;3.08;;
15331;SDS011;7766;51.534;6.722;2023-04-03T01:33:59;5.32;;;2.97;;
15331;SDS011;7766;51.534;6.722;2023-04-03T01:35:00;4.60;;;2.70;;
15331;SDS011;7766;51.534;6.722;2023-04-03T01:36:01;4.03;;;3.05;;
15331;SDS011;7766;51.534;6.722;2023-04-03T01:37:03;4.47;;;2.78;;
15331;SDS011;7766;51.534;6.722;2023-04-03T01:38:04;5.82;;;3.10;;
15331;SDS011;7766;51.534;6.722;2023-04-03T01:39:06;5.07;;;3.10;;
15331;SDS011;7766;51.534;6.722;2023-04-03T01:40:07;3.65;;;3.03;;
15331;SDS011;7766;51.534;6.722;2023-04-03T01:41:08;3.67;;;2.90;;
15331;SDS011;7766;51.534;6.722;2023-04-03T01:42:09;7.55;;;3.40;;
15331;SDS011;7766;51.534;6.722;2023-04-03T01:43:11;4.78;;;2.80;;
15331;SDS011;7766;51.534;6.722;2023-04-03T01:44:12;6.10;;;3.10;;
15331;SDS011;7766;51.534;6.722;2023-04-03T01:45:13;5.53;;;3.00;;
15331;SDS011;7766;51.534;6.722;2023-04-03T01:46:15;6.43;;;2.72;;
15331;SDS011;7766;51.534;6.722;2023-04-03T01:47:17;5.10;;;2.90;;
15331;SDS011;7766;51.534;6.722;2023-04-03T01:48:18;6.28;;;3.08;;
15331;SDS011;7766;51.534;6.722;2023-04-03T01:49:19;3.50;;;2.85;;
15331;SDS011;7766;51.534;6.722;2023-04-03T01:50:20;5.45;;;3.00;;
15331;SDS011;7766;51.534;6.722;2023-04-03T01:51:21;3.72;;;2.75;;
15331;SDS011;7766;51.534;6.722;2023-04-03T01:52:22;6.07;;;3.28;;
15331;SDS011;7766;51.534;6.722;2023-04-03T01:53:23;5.35;;;2.90;;
15331;SDS011;7766;51.534;6.722;2023-04-03T01:54:24;4.70;;;3.10;;
15331;SDS011;7766;51.534;6.722;2023-04-03T01:55:25;3.40;;;2.80;;
15331;SDS011;7766;51.534;6.722;2023-04-03T01:56:26;4.07;;;2.80;;
15331;SDS011;7766;51.534;6.722;2023-04-03T01:57:27;3.40;;;2.75;;
15331;SDS011;7766;51.534;6.722;2023-04-03T01:58:28;3.33;;;2.37;;
15331;SDS011;7766;51.534;6.722;2023-04-03T01:59:30;5.22;;;2.85;;
15331;SDS011;7766;51.534;6.722;2023-04-03T02:00:31;5.43;;;3.08;;
15331;SDS011;7766;51.534;6.722;2023-04-03T02:01:32;4.32;;;2.72;;
15331;SDS011;7766;51.534;6.722;2023-04-03T02:02:33;5.05;;;2.70;;
15331;SDS011;7766;51.534;6.722;2023-04-03T02:03:34;4.40;;;3.28;;
15331;SDS011;7766;51.534;6.722;2023-04-03T02:04:35;4.05;;;2.60;;
15331;SDS011;7766;51.534;6.722;2023-04-03T02:05:36;4.45;;;2.50;;
15331;SDS011;7766;51.534;6.722;2023-04-03T02:06:37;5.32;;;2.50;;
15331;SDS011;7766;51.534;6.722;2023-04-03T02:07:38;6.18;;;2.58;;
15331;SDS011;7766;51.534;6.722;2023-04-03T02:08:39;4.65;;;2.40;;
15331;SDS011;7766;51.534;6.722;2023-04-03T02:09:41;3.63;;;3.00;;
15331;SDS011;7766;51.534;6.722;2023-04-03T02:10:42;3.63;;;2.45;;
15331;SDS011;7766;51.534;6.722;2023-04-03T02:11:44;5.55;;;2.50;;
15331;SDS011;7766;51.534;6.722;2023-04-03T02:12:45;4.32;;;2.40;;
15331;SDS011;7766;51.534;6.722;2023-04-03T02:13:46;6.07;;;2.47;;
15331;SDS011;7766;51.534;6.722;2023-04-03T02:14:47;4.17;;;2.67;;
15331;SDS011;7766;51.534;6.722;2023-04-03T02:15:48;3.78;;;2.30;;
15331;SDS011;7766;51.534;6.722;2023-04-03T02:16:49;4.53;;;2.40;;
15331;SDS011;7766;51.534;6.722;2023-04-03T02:17:50;5.22;;;2.35;;
15331;SDS011;7766;51.534;6.722;2023-04-03T02:18:52;3.88;;;2.35;;
15331;SDS011;7766;51.534;6.722;2023-04-03T02:19:53;4.07;;;2.38;;
15331;SDS011;7766;51.534;6.722;2023-04-03T02:20:54;6.47;;;2.33;;
15331;SDS011;7766;51.534;6.722;2023-04-03T02:21:55;5.53;;;2.28;;
15331;SDS011;7766;51.534;6.722;2023-04-03T02:22:56;6.88;;;2.75;;
15331;SDS011;7766;51.534;6.722;2023-04-03T02:23:58;5.80;;;2.45;;
15331;SDS011;7766;51.534;6.722;2023-04-03T02:24:59;4.80;;;2.33;;
15331;SDS011;7766;51.534;6.722;2023-04-03T02:26:11;4.95;;;2.28;;
15331;SDS011;7766;51.534;6.722;2023-04-03T02:27:13;5.50;;;2.50;;
15331;SDS011;7766;51.534;6.722;2023-04-03T02:28:14;6.32;;;2.10;;
15331;SDS011;7766;51.534;6.722;2023-04-03T02:29:15;5.32;;;2.60;;
15331;SDS011;7766;51.534;6.722;2023-04-03T02:30:16;3.70;;;1.88;;
15331;SDS011;7766;51.534;6.722;2023-04-03T02:31:18;5.57;;;2.50;;
15331;SDS011;7766;51.534;6.722;2023-04-03T02:32:19;2.63;;;2.08;;
15331;SDS011;7766;51.534;6.722;2023-04-03T02:33:20;4.05;;;2.22;;
15331;SDS011;7766;51.534;6.722;2023-04-03T02:34:21;6.63;;;2.33;;
15331;SDS011;7766;51.534;6.722;2023-04-03T02:35:22;3.13;;;2.20;;
15331;SDS011;7766;51.534;6.722;2023-04-03T02:36:23;5.63;;;2.45;;
15331;SDS011;7766;51.534;6.722;2023-04-03T02:37:24;4.10;;;2.20;;
15331;SDS011;7766;51.534;6.722;2023-04-03T02:38:25;5.68;;;2.08;;
15331;SDS011;7766;51.534;6.722;2023-04-03T02:39:26;4.65;;;2.15;;
15331;SDS011;7766;51.534;6.722;2023-04-03T02:40:27;4.40;;;2.30;;
15331;SDS011;7766;51.534;6.722;2023-04-03T02:41:28;3.53;;;2.30;;
15331;SDS011;7766;51.534;6.722;2023-04-03T02:42:34;6.38;;;2.55;;
15331;SDS011;7766;51.534;6.722;2023-04-03T02:43:36;5.38;;;1.80;;
15331;SDS011;7766;51.534;6.722;2023-04-03T02:44:37;8.32;;;2.38;;
15331;SDS011;7766;51.534;6.722;2023-04-03T02:45:38;4.57;;;2.40;;
15331;SDS011;7766;51.534;6.722;2023-04-03T02:46:40;4.57;;;1.92;;
15331;SDS011;7766;51.534;6.722;2023-04-03T02:47:40;3.83;;;2.00;;
15331;SDS011;7766;51.534;6.722;2023-04-03T02:48:41;3.75;;;2.03;;
15331;SDS011;7766;51.534;6.722;2023-04-03T02:49:42;4.15;;;2.30;;
15331;SDS011;7766;51.534;6.722;2023-04-03T02:50:45;4.85;;;2.20;;
15331;SDS011;7766;51.534;6.722;2023-04-03T02:51:46;4.27;;;2.00;;
15331;SDS011;7766;51.534;6.722;2023-04-03T02:52:47;7.13;;;2.30;;
15331;SDS011;7766;51.534;6.722;2023-04-03T02:53:48;4.03;;;2.55;;
15331;SDS011;7766;51.534;6.722;2023-04-03T02:54:50;2.30;;;2.05;;
15331;SDS011;7766;51.534;6.722;2023-04-03T02:55:51;5.50;;;2.00;;
15331;SDS011;7766;51.534;6.722;2023-04-03T02:56:52;6.97;;;1.92;;
15331;SDS011;7766;51.534;6.722;2023-04-03T02:57:53;5.60;;;1.90;;
15331;SDS011;7766;51.534;6.722;2023-04-03T02:58:54;4.13;;;1.85;;
15331;SDS011;7766;51.534;6.722;2023-04-03T02:59:55;6.43;;;2.38;;
15331;SDS011;7766;51.534;6.722;2023-04-03T03:00:56;5.18;;;2.03;;
15331;SDS011;7766;51.534;6.722;2023-04-03T03:01:57;6.45;;;1.85;;
15331;SDS011;7766;51.534;6.722;2023-04-03T03:02:58;4.72;;;2.08;;
15331;SDS011;7766;51.534;6.722;2023-04-03T03:03:59;5.53;;;1.70;;
15331;SDS011;7766;51.534;6.722;2023-04-03T03:05:00;6.10;;;2.42;;
15331;SDS011;7766;51.534;6.722;2023-04-03T03:06:09;5.30;;;2.25;;
15331;SDS011;7766;51.534;6.722;2023-04-03T03:07:13;2.90;;;1.92;;
15331;SDS011;7766;51.534;6.722;2023-04-03T03:08:14;7.25;;;2.20;;
15331;SDS011;7766;51.534;6.722;2023-04-03T03:09:15;4.78;;;1.80;;
15331;SDS011;7766;51.534;6.722;2023-04-03T03:10:16;2.92;;;1.77;;
15331;SDS011;7766;51.534;6.722;2023-04-03T03:11:18;7.55;;;1.65;;
15331;SDS011;7766;51.534;6.722;2023-04-03T03:12:19;4.35;;;1.90;;
15331;SDS011;7766;51.534;6.722;2023-04-03T03:13:21;5.70;;;1.88;;
15331;SDS011;7766;51.534;6.722;2023-04-03T03:14:23;3.75;;;1.92;;
15331;SDS011;7766;51.534;6.722;2023-04-03T03:15:24;6.85;;;1.90;;
15331;SDS011;7766;51.534;6.722;2023-04-03T03:16:25;3.55;;;1.77;;
15331;SDS011;7766;51.534;6.722;2023-04-03T03:17:26;6.97;;;2.13;;
15331;SDS011;7766;51.534;6.722;2023-04-03T03:18:27;4.35;;;1.70;;
15331;SDS011;7766;51.534;6.722;2023-04-03T03:19:28;5.88;;;1.85;;
15331;SDS011;7766;51.534;6.722;2023-04-03T03:20:30;6.10;;;2.13;;
15331;SDS011;7766;51.534;6.722;2023-04-03T03:21:31;9.18;;;2.03;;
15331;SDS011;7766;51.534;6.722;2023-04-03T03:22:32;4.38;;;2.35;;
15331;SDS011;7766;51.534;6.722;2023-04-03T03:23:35;5.63;;;2.45;;
15331;SDS011;7766;51.534;6.722;2023-04-03T03:24:36;4.68;;;2.50;;
15331;SDS011;7766;51.534;6.722;2023-04-03T03:25:38;4.75;;;1.98;;
15331;SDS011;7766;51.534;6.722;2023-04-03T03:26:40;4.65;;;2.13;;
15331;SDS011;7766;51.534;6.722;2023-04-03T03:27:41;3.75;;;2.03;;
15331;SDS011;7766;51.534;6.722;2023-04-03T03:28:42;3.67;;;2.10;;
15331;SDS011;7766;51.534;6.722;2023-04-03T03:29:43;5.90;;;2.23;;
15331;SDS011;7766;51.534;6.722;2023-04-03T03:30:44;5.93;;;2.38;;
15331;SDS011;7766;51.534;6.722;2023-04-03T03:31:45;5.32;;;2.00;;
15331;SDS011;7766;51.534;6.722;2023-04-03T03:32:46;6.45;;;2.25;;
15331;SDS011;7766;51.534;6.722;2023-04-03T03:33:47;6.72;;;1.80;;
15331;SDS011;7766;51.534;6.722;2023-04-03T03:34:48;2.83;;;1.70;;
15331;SDS011;7766;51.534;6.722;2023-04-03T03:35:51;3.40;;;1.85;;
15331;SDS011;7766;51.534;6.722;2023-04-03T03:36:52;5.50;;;2.45;;
15331;SDS011;7766;51.534;6.722;2023-04-03T03:37:53;4.10;;;2.13;;
15331;SDS011;7766;51.534;6.722;2023-04-03T03:38:55;4.50;;;2.13;;
15331;SDS011;7766;51.534;6.722;2023-04-03T03:39:56;4.32;;;2.10;;
15331;SDS011;7766;51.534;6.722;2023-04-03T03:40:57;7.45;;;2.08;;
15331;SDS011;7766;51.534;6.722;2023-04-03T03:41:58;5.95;;;2.20;;
15331;SDS011;7766;51.534;6.722;2023-04-03T03:42:58;3.27;;;1.87;;
15331;SDS011;7766;51.534;6.722;2023-04-03T03:44:00;3.72;;;1.80;;
15331;SDS011;7766;51.534;6.722;2023-04-03T03:45:01;4.45;;;1.88;;
15331;SDS011;7766;51.534;6.722;2023-04-03T03:46:02;4.18;;;1.63;;
15331;SDS011;7766;51.534;6.722;2023-04-03T03:47:03;4.28;;;1.80;;
15331;SDS011;7766;51.534;6.722;2023-04-03T03:48:06;3.58;;;1.85;;
15331;SDS011;7766;51.534;6.722;2023-04-03T03:49:07;7.57;;;1.92;;
15331;SDS011;7766;51.534;6.722;2023-04-03T03:50:08;5.95;;;1.85;;
15331;SDS011;7766;51.534;6.722;2023-04-03T03:51:09;2.20;;;1.73;;
15331;SDS011;7766;51.534;6.722;2023-04-03T03:52:10;3.88;;;2.05;;
15331;SDS011;7766;51.534;6.722;2023-04-03T03:53:11;2.97;;;1.60;;
15331;SDS011;7766;51.534;6.722;2023-04-03T03:54:12;5.40;;;1.70;;
15331;SDS011;7766;51.534;6.722;2023-04-03T03:55:14;4.57;;;1.45;;
15331;SDS011;7766;51.534;6.722;2023-04-03T03:56:15;5.15;;;1.85;;
15331;SDS011;7766;51.534;6.722;2023-04-03T03:57:16;4.60;;;2.10;;
15331;SDS011;7766;51.534;6.722;2023-04-03T03:58:17;4.45;;;2.10;;
15331;SDS011;7766;51.534;6.722;2023-04-03T03:59:18;5.70;;;1.95;;
15331;SDS011;7766;51.534;6.722;2023-04-03T04:00:19;5.55;;;2.20;;
15331;SDS011;7766;51.534;6.722;2023-04-03T04:01:20;4.30;;;1.73;;
15331;SDS011;7766;51.534;6.722;2023-04-03T04:02:22;5.82;;;2.20;;
15331;SDS011;7766;51.534;6.722;2023-04-03T04:03:23;4.75;;;1.95;;
15331;SDS011;7766;51.534;6.722;2023-04-03T04:04:24;5.47;;;2.17;;
15331;SDS011;7766;51.534;6.722;2023-04-03T04:05:25;6.50;;;2.50;;
15331;SDS011;7766;51.534;6.722;2023-04-03T04:06:26;3.90;;;2.38;;
15331;SDS011;7766;51.534;6.722;2023-04-03T04:07:27;5.93;;;2.20;;
15331;SDS011;7766;51.534;6.722;2023-04-03T04:08:29;5.65;;;1.85;;
15331;SDS011;7766;51.534;6.722;2023-04-03T04:09:30;3.72;;;1.98;;
15331;SDS011;7766;51.534;6.722;2023-04-03T04:10:31;9.10;;;2.23;;
15331;SDS011;7766;51.534;6.722;2023-04-03T04:11:32;3.40;;;1.80;;
15331;SDS011;7766;51.534;6.722;2023-04-03T04:12:33;3.83;;;1.83;;
15331;SDS011;7766;51.534;6.722;2023-04-03T04:13:35;5.95;;;1.98;;
15331;SDS011;7766;51.534;6.722;2023-04-03T04:14:36;5.13;;;1.70;;
15331;SDS011;7766;51.534;6.722;2023-04-03T04:15:37;3.88;;;2.35;;
15331;SDS011;7766;51.534;6.722;2023-04-03T04:16:38;5.38;;;1.40;;
15331;SDS011;7766;51.534;6.722;2023-04-03T04:17:39;5.50;;;2.13;;
15331;SDS011;7766;51.534;6.722;2023-04-03T04:18:40;3.73;;;1.50;;
15331;SDS011;7766;51.534;6.722;2023-04-03T04:19:41;6.68;;;1.35;;
15331;SDS011;7766;51.534;6.722;2023-04-03T04:20:44;4.15;;;1.95;;
15331;SDS011;7766;51.534;6.722;2023-04-03T04:21:45;4.05;;;1.60;;
15331;SDS011;7766;51.534;6.722;2023-04-03T04:22:46;4.55;;;1.90;;
15331;SDS011;7766;51.534;6.722;2023-04-03T04:23:47;4.28;;;1.42;;
15331;SDS011;7766;51.534;6.722;2023-04-03T04:24:48;6.00;;;1.70;;
15331;SDS011;7766;51.534;6.722;2023-04-03T04:25:49;4.20;;;1.90;;
15331;SDS011;7766;51.534;6.722;2023-04-03T04:26:50;2.53;;;1.65;;
15331;SDS011;7766;51.534;6.722;2023-04-03T04:27:51;3.50;;;1.83;;
15331;SDS011;7766;51.534;6.722;2023-04-03T04:28:52;5.20;;;1.88;;
15331;SDS011;7766;51.534;6.722;2023-04-03T04:29:53;4.60;;;2.65;;
15331;SDS011;7766;51.534;6.722;2023-04-03T04:30:54;5.53;;;1.80;;
15331;SDS011;7766;51.534;6.722;2023-04-03T04:31:55;4.87;;;2.10;;
15331;SDS011;7766;51.534;6.722;2023-04-03T04:32:56;6.90;;;2.17;;
15331;SDS011;7766;51.534;6.722;2023-04-03T04:33:57;4.55;;;1.98;;
15331;SDS011;7766;51.534;6.722;2023-04-03T04:34:58;6.43;;;2.23;;
15331;SDS011;7766;51.534;6.722;2023-04-03T04:35:59;6.10;;;2.05;;
15331;SDS011;7766;51.534;6.722;2023-04-03T04:37:00;6.40;;;1.97;;
15331;SDS011;7766;51.534;6.722;2023-04-03T04:38:01;5.65;;;2.28;;
15331;SDS011;7766;51.534;6.722;2023-04-03T04:39:02;4.93;;;1.90;;
15331;SDS011;7766;51.534;6.722;2023-04-03T04:40:03;4.55;;;1.90;;
15331;SDS011;7766;51.534;6.722;2023-04-03T04:41:05;2.20;;;1.77;;
15331;SDS011;7766;51.534;6.722;2023-04-03T04:42:06;4.57;;;2.08;;
15331;SDS011;7766;51.534;6.722;2023-04-03T04:43:12;7.03;;;2.25;;
15331;SDS011;7766;51.534;6.722;2023-04-03T04:44:14;3.53;;;2.05;;
15331;SDS011;7766;51.534;6.722;2023-04-03T04:45:15;4.38;;;1.98;;
15331;SDS011;7766;51.534;6.722;2023-04-03T04:46:17;5.13;;;2.20;;
15331;SDS011;7766;51.534;6.722;2023-04-03T04:47:18;3.33;;;1.83;;
15331;SDS011;7766;51.534;6.722;2023-04-03T04:48:20;3.63;;;1.95;;
15331;SDS011;7766;51.534;6.722;2023-04-03T04:49:21;3.88;;;1.95;;
15331;SDS011;7766;51.534;6.722;2023-04-03T04:50:22;4.57;;;2.22;;
15331;SDS011;7766;51.534;6.722;2023-04-03T04:51:23;3.95;;;1.73;;
15331;SDS011;7766;51.534;6.722;2023-04-03T04:52:24;3.25;;;2.08;;
15331;SDS011;7766;51.534;6.722;2023-04-03T04:53:25;2.90;;;1.75;;
15331;SDS011;7766;51.534;6.722;2023-04-03T04:54:27;3.75;;;1.80;;
15331;SDS011;7766;51.534;6.722;2023-04-03T04:55:28;4.97;;;1.80;;
15331;SDS011;7766;51.534;6.722;2023-04-03T04:56:28;4.93;;;1.87;;
15331;SDS011;7766;51.534;6.722;2023-04-03T04:57:29;5.82;;;1.80;;
15331;SDS011;7766;51.534;6.722;2023-04-03T04:58:30;5.15;;;1.73;;
15331;SDS011;7766;51.534;6.722;2023-04-03T04:59:31;3.60;;;1.75;;
15331;SDS011;7766;51.534;6.722;2023-04-03T05:00:32;5.50;;;1.83;;
15331;SDS011;7766;51.534;6.722;2023-04-03T05:01:33;3.17;;;1.67;;
15331;SDS011;7766;51.534;6.722;2023-04-03T05:02:35;5.82;;;1.90;;
15331;SDS011;7766;51.534;6.722;2023-04-03T05:03:36;5.10;;;2.10;;
15331;SDS011;7766;51.534;6.722;2023-04-03T05:04:37;6.45;;;2.00;;
15331;SDS011;7766;51.534;6.722;2023-04-03T05:05:38;4.40;;;2.00;;
15331;SDS011;7766;51.534;6.722;2023-04-03T05:06:40;3.45;;;2.13;;
15331;SDS011;7766;51.534;6.722;2023-04-03T05:07:41;5.30;;;2.00;;
15331;SDS011;7766;51.534;6.722;2023-04-03T05:08:42;2.97;;;1.48;;
15331;SDS011;7766;51.534;6.722;2023-04-03T05:09:43;4.90;;;2.00;;
15331;SDS011;7766;51.534;6.722;2023-04-03T05:10:44;4.22;;;1.52;;
15331;SDS011;7766;51.534;6.722;2023-04-03T05:11:46;5.10;;;2.10;;
15331;SDS011;7766;51.534;6.722;2023-04-03T05:12:47;8.73;;;2.42;;
15331;SDS011;7766;51.534;6.722;2023-04-03T05:13:48;3.40;;;1.95;;
15331;SDS011;7766;51.534;6.722;2023-04-03T05:14:49;4.15;;;1.67;;
15331;SDS011;7766;51.534;6.722;2023-04-03T05:15:50;6.10;;;1.95;;
15331;SDS011;7766;51.534;6.722;2023-04-03T05:16:51;4.70;;;2.07;;
15331;SDS011;7766;51.534;6.722;2023-04-03T05:17:53;7.70;;;2.00;;
15331;SDS011;7766;51.534;6.722;2023-04-03T05:18:54;5.18;;;1.92;;
15331;SDS011;7766;51.534;6.722;2023-04-03T05:19:55;4.95;;;1.70;;
15331;SDS011;7766;51.534;6.722;2023-04-03T05:20:56;4.50;;;2.30;;
15331;SDS011;7766;51.534;6.722;2023-04-03T05:21:58;6.47;;;1.80;;
15331;SDS011;7766;51.534;6.722;2023-04-03T05:23:00;4.82;;;1.55;;
15331;SDS011;7766;51.534;6.722;2023-04-03T05:24:01;4.97;;;1.90;;
15331;SDS011;7766;51.534;6.722;2023-04-03T05:25:03;6.03;;;1.98;;
15331;SDS011;7766;51.534;6.722;2023-04-03T05:26:05;9.77;;;2.42;;
15331;SDS011;7766;51.534;6.722;2023-04-03T05:27:06;5.20;;;2.13;;
15331;SDS011;7766;51.534;6.722;2023-04-03T05:28:07;3.27;;;2.03;;
15331;SDS011;7766;51.534;6.722;2023-04-03T05:29:08;4.50;;;1.98;;
15331;SDS011;7766;51.534;6.722;2023-04-03T05:30:10;7.65;;;2.13;;
15331;SDS011;7766;51.534;6.722;2023-04-03T05:31:12;5.43;;;1.95;;
15331;SDS011;7766;51.534;6.722;2023-04-03T05:32:13;2.13;;;1.60;;
15331;SDS011;7766;51.534;6.722;2023-04-03T05:33:14;5.25;;;1.98;;
15331;SDS011;7766;51.534;6.722;2023-04-03T05:34:15;5.30;;;1.90;;
15331;SDS011;7766;51.534;6.722;2023-04-03T05:35:17;4.40;;;1.88;;
15331;SDS011;7766;51.534;6.722;2023-04-03T05:36:18;4.60;;;1.60;;
15331;SDS011;7766;51.534;6.722;2023-04-03T05:37:19;6.22;;;1.33;;
15331;SDS011;7766;51.534;6.722;2023-04-03T05:38:20;4.72;;;1.90;;
15331;SDS011;7766;51.534;6.722;2023-04-03T05:39:21;5.60;;;1.75;;
15331;SDS011;7766;51.534;6.722;2023-04-03T05:40:22;5.43;;;1.60;;
15331;SDS011;7766;51.534;6.722;2023-04-03T05:41:23;3.83;;;1.70;;
15331;SDS011;7766;51.534;6.722;2023-04-03T05:42:25;2.90;;;1.70;;
15331;SDS011;7766;51.534;6.722;2023-04-03T05:43:26;5.28;;;1.67;;
15331;SDS011;7766;51.534;6.722;2023-04-03T05:44:27;4.75;;;1.60;;
15331;SDS011;7766;51.534;6.722;2023-04-03T05:45:28;5.07;;;1.90;;
15331;SDS011;7766;51.534;6.722;2023-04-03T05:46:30;5.78;;;1.80;;
15331;SDS011;7766;51.534;6.722;2023-04-03T05:47:31;4.03;;;1.75;;
15331;SDS011;7766;51.534;6.722;2023-04-03T05:48:32;5.68;;;1.45;;
15331;SDS011;7766;51.534;6.722;2023-04-03T05:49:33;5.03;;;1.50;;
15331;SDS011;7766;51.534;6.722;2023-04-03T05:50:34;4.30;;;2.10;;
15331;SDS011;7766;51.534;6.722;2023-04-03T05:51:36;8.18;;;2.15;;
15331;SDS011;7766;51.534;6.722;2023-04-03T05:52:39;3.83;;;2.00;;
15331;SDS011;7766;51.534;6.722;2023-04-03T05:53:44;6.13;;;1.90;;
15331;SDS011;7766;51.534;6.722;2023-04-03T05:54:47;4.88;;;1.98;;
15331;SDS011;7766;51.534;6.722;2023-04-03T05:55:48;5.38;;;1.83;;
15331;SDS011;7766;51.534;6.722;2023-04-03T05:56:49;5.53;;;2.25;;
15331;SDS011;7766;51.534;6.722;2023-04-03T05:57:51;5.40;;;1.70;;
15331;SDS011;7766;51.534;6.722;2023-04-03T05:58:52;6.38;;;1.90;;
15331;SDS011;7766;51.534;6.722;2023-04-03T05:59:52;4.80;;;1.90;;
15331;SDS011;7766;51.534;6.722;2023-04-03T06:00:53;5.63;;;2.10;;
15331;SDS011;7766;51.534;6.722;2023-04-03T06:01:55;4.05;;;1.88;;
15331;SDS011;7766;51.534;6.722;2023-04-03T06:02:56;6.93;;;1.48;;
15331;SDS011;7766;51.534;6.722;2023-04-03T06:03:57;5.22;;;2.30;;
15331;SDS011;7766;51.534;6.722;2023-04-03T06:04:58;4.03;;;1.85;;
15331;SDS011;7766;51.534;6.722;2023-04-03T06:05:59;8.67;;;2.63;;
15331;SDS011;7766;51.534;6.722;2023-04-03T06:07:03;2.97;;;2.05;;
15331;SDS011;7766;51.534;6.722;2023-04-03T06:08:04;4.68;;;2.42;;
15331;SDS011;7766;51.534;6.722;2023-04-03T06:09:05;6.13;;;2.25;;
15331;SDS011;7766;51.534;6.722;2023-04-03T06:10:07;3.92;;;2.08;;
15331;SDS011;7766;51.534;6.722;2023-04-03T06:11:09;5.15;;;2.00;;
15331;SDS011;7766;51.534;6.722;2023-04-03T06:12:10;5.57;;;2.25;;
15331;SDS011;7766;51.534;6.722;2023-04-03T06:13:11;5.47;;;2.08;;
15331;SDS011;7766;51.534;6.722;2023-04-03T06:14:12;7.28;;;2.25;;
15331;SDS011;7766;51.534;6.722;2023-04-03T06:15:13;5.67;;;2.20;;
15331;SDS011;7766;51.534;6.722;2023-04-03T06:16:14;4.95;;;2.10;;
15331;SDS011;7766;51.534;6.722;2023-04-03T06:17:17;5.85;;;1.90;;
15331;SDS011;7766;51.534;6.722;2023-04-03T06:18:18;4.97;;;1.75;;
15331;SDS011;7766;51.534;6.722;2023-04-03T06:19:21;4.13;;;1.88;;
15331;SDS011;7766;51.534;6.722;2023-04-03T06:20:22;6.15;;;2.70;;